sensor_id;sensor_type;location;lat;lon;timestamp;P1;durP1;ratioP1;P2;durP2;ratioP2
10535;SDS011;5316;49.538;8.352;2022-09-09T00:02:08;2.53;;;0.77;;
10535;SDS011;5316;49.538;8.352;2022-09-09T00:04:42;3.20;;;0.90;;
10535;SDS011;5316;49.538;8.352;2022-09-09T00:07:18;2.93;;;0.80;;
10535;SDS011;5316;49.538;8.352;2022-09-09T00:09:52;2.17;;;0.80;;
10535;SDS011;5316;49.538;8.352;2022-09-09T00:12:34;3.67;;;1.03;;
10535;SDS011;5316;49.538;8.352;2022-09-09T00:15:11;1.93;;;0.90;;
10535;SDS011;5316;49.538;8.352;2022-09-09T00:17:42;2.37;;;0.97;;
10535;SDS011;5316;49.538;8.352;2022-09-09T00:20:14;2.10;;;0.90;;
10535;SDS011;5316;49.538;8.352;2022-09-09T00:22:49;3.00;;;1.00;;
10535;SDS011;5316;49.538;8.352;2022-09-09T00:25:24;1.93;;;0.93;;
10535;SDS011;5316;49.538;8.352;2022-09-09T00:27:55;1.60;;;0.80;;
10535;SDS011;5316;49.538;8.352;2022-09-09T00:30:23;2.70;;;0.80;;
10535;SDS011;5316;49.538;8.352;2022-09-09T00:32:53;3.83;;;1.20;;
10535;SDS011;5316;49.538;8.352;2022-09-09T00:35:24;1.97;;;0.80;;
10535;SDS011;5316;49.538;8.352;2022-09-09T00:37:54;1.80;;;0.70;;
10535;SDS011;5316;49.538;8.352;2022-09-09T00:40:27;4.00;;;0.93;;
10535;SDS011;5316;49.538;8.352;2022-09-09T00:43:06;2.23;;;0.70;;
10535;SDS011;5316;49.538;8.352;2022-09-09T00:45:52;2.57;;;0.80;;
10535;SDS011;5316;49.538;8.352;2022-09-09T00:48:35;1.27;;;0.80;;
10535;SDS011;5316;49.538;8.352;2022-09-09T00:51:09;3.03;;;0.83;;
10535;SDS011;5316;49.538;8.352;2022-09-09T00:53:54;4.37;;;0.80;;
10535;SDS011;5316;49.538;8.352;2022-09-09T00:56:40;1.73;;;1.00;;
10535;SDS011;5316;49.538;8.352;2022-09-09T00:59:16;3.13;;;0.77;;
10535;SDS011;5316;49.538;8.352;2022-09-09T01:01:52;3.07;;;1.03;;
10535;SDS011;5316;49.538;8.352;2022-09-09T01:04:22;2.67;;;0.80;;
10535;SDS011;5316;49.538;8.352;2022-09-09T01:06:58;2.47;;;1.00;;
10535;SDS011;5316;49.538;8.352;2022-09-09T01:09:32;2.90;;;1.10;;
10535;SDS011;5316;49.538;8.352;2022-09-09T01:12:07;2.87;;;1.00;;
10535;SDS011;5316;49.538;8.352;2022-09-09T01:14:42;2.33;;;0.97;;
10535;SDS011;5316;49.538;8.352;2022-09-09T01:17:14;2.33;;;0.87;;
10535;SDS011;5316;49.538;8.352;2022-09-09T01:19:47;2.73;;;1.00;;
10535;SDS011;5316;49.538;8.352;2022-09-09T01:22:24;2.63;;;0.90;;
10535;SDS011;5316;49.538;8.352;2022-09-09T01:27:52;2.10;;;0.60;;
10535;SDS011;5316;49.538;8.352;2022-09-09T01:30:22;6.13;;;0.87;;
10535;SDS011;5316;49.538;8.352;2022-09-09T01:32:50;3.30;;;0.80;;
10535;SDS011;5316;49.538;8.352;2022-09-09T01:35:22;3.13;;;0.80;;
10535;SDS011;5316;49.538;8.352;2022-09-09T01:37:55;1.20;;;0.70;;
10535;SDS011;5316;49.538;8.352;2022-09-09T01:40:22;3.57;;;0.80;;
10535;SDS011;5316;49.538;8.352;2022-09-09T01:42:53;1.00;;;0.63;;
10535;SDS011;5316;49.538;8.352;2022-09-09T01:45:20;1.37;;;0.70;;
10535;SDS011;5316;49.538;8.352;2022-09-09T01:47:48;4.13;;;0.90;;
10535;SDS011;5316;49.538;8.352;2022-09-09T01:50:16;3.27;;;0.67;;
10535;SDS011;5316;49.538;8.352;2022-09-09T01:52:43;0.87;;;0.60;;
10535;SDS011;5316;49.538;8.352;2022-09-09T01:55:12;2.13;;;0.80;;
10535;SDS011;5316;49.538;8.352;2022-09-09T01:57:39;1.37;;;0.70;;
10535;SDS011;5316;49.538;8.352;2022-09-09T02:00:14;2.17;;;0.70;;
10535;SDS011;5316;49.538;8.352;2022-09-09T02:02:44;2.10;;;0.80;;
10535;SDS011;5316;49.538;8.352;2022-09-09T02:05:21;1.50;;;0.60;;
10535;SDS011;5316;49.538;8.352;2022-09-09T02:07:57;0.93;;;0.70;;
10535;SDS011;5316;49.538;8.352;2022-09-09T02:10:32;2.57;;;0.90;;
10535;SDS011;5316;49.538;8.352;2022-09-09T02:13:04;1.07;;;0.57;;
10535;SDS011;5316;49.538;8.352;2022-09-09T02:15:38;0.70;;;0.50;;
10535;SDS011;5316;49.538;8.352;2022-09-09T02:18:10;1.33;;;0.77;;
10535;SDS011;5316;49.538;8.352;2022-09-09T02:20:39;2.27;;;0.70;;
10535;SDS011;5316;49.538;8.352;2022-09-09T02:23:09;1.83;;;0.60;;
10535;SDS011;5316;49.538;8.352;2022-09-09T02:25:38;4.00;;;0.60;;
10535;SDS011;5316;49.538;8.352;2022-09-09T02:28:09;3.37;;;0.70;;
10535;SDS011;5316;49.538;8.352;2022-09-09T02:30:40;2.97;;;0.90;;
10535;SDS011;5316;49.538;8.352;2022-09-09T02:33:10;2.83;;;0.70;;
10535;SDS011;5316;49.538;8.352;2022-09-09T02:35:39;1.43;;;0.60;;
10535;SDS011;5316;49.538;8.352;2022-09-09T02:38:10;4.87;;;0.90;;
10535;SDS011;5316;49.538;8.352;2022-09-09T02:40:39;2.27;;;0.90;;
10535;SDS011;5316;49.538;8.352;2022-09-09T02:43:06;1.83;;;0.50;;
10535;SDS011;5316;49.538;8.352;2022-09-09T02:45:34;3.90;;;0.60;;
10535;SDS011;5316;49.538;8.352;2022-09-09T02:48:10;9.87;;;8.03;;
10535;SDS011;5316;49.538;8.352;2022-09-09T02:50:41;4.67;;;1.90;;
10535;SDS011;5316;49.538;8.352;2022-09-09T02:53:16;1.77;;;1.00;;
10535;SDS011;5316;49.538;8.352;2022-09-09T02:55:46;3.03;;;0.90;;
10535;SDS011;5316;49.538;8.352;2022-09-09T02:58:15;1.87;;;0.80;;
10535;SDS011;5316;49.538;8.352;2022-09-09T03:00:45;1.43;;;0.60;;
10535;SDS011;5316;49.538;8.352;2022-09-09T03:03:15;1.77;;;1.00;;
10535;SDS011;5316;49.538;8.352;2022-09-09T03:05:44;1.53;;;0.80;;
10535;SDS011;5316;49.538;8.352;2022-09-09T03:08:12;1.03;;;0.70;;
10535;SDS011;5316;49.538;8.352;2022-09-09T03:10:39;4.10;;;0.80;;
10535;SDS011;5316;49.538;8.352;2022-09-09T03:13:06;3.40;;;0.90;;
10535;SDS011;5316;49.538;8.352;2022-09-09T03:15:33;2.03;;;0.87;;
10535;SDS011;5316;49.538;8.352;2022-09-09T03:18:01;1.83;;;0.60;;
10535;SDS011;5316;49.538;8.352;2022-09-09T03:20:29;5.40;;;0.93;;
10535;SDS011;5316;49.538;8.352;2022-09-09T03:22:56;3.77;;;0.70;;
10535;SDS011;5316;49.538;8.352;2022-09-09T03:25:25;3.23;;;0.87;;
10535;SDS011;5316;49.538;8.352;2022-09-09T03:27:54;2.80;;;0.83;;
10535;SDS011;5316;49.538;8.352;2022-09-09T03:30:21;3.93;;;0.80;;
10535;SDS011;5316;49.538;8.352;2022-09-09T03:32:49;4.67;;;0.90;;
10535;SDS011;5316;49.538;8.352;2022-09-09T03:35:15;4.87;;;1.30;;
10535;SDS011;5316;49.538;8.352;2022-09-09T03:37:44;11.17;;;2.40;;
10535;SDS011;5316;49.538;8.352;2022-09-09T03:40:11;1.70;;;0.70;;
10535;SDS011;5316;49.538;8.352;2022-09-09T03:42:38;3.87;;;0.93;;
10535;SDS011;5316;49.538;8.352;2022-09-09T03:45:06;3.37;;;1.00;;
10535;SDS011;5316;49.538;8.352;2022-09-09T03:47:35;3.70;;;0.80;;
10535;SDS011;5316;49.538;8.352;2022-09-09T03:50:02;2.23;;;0.80;;
10535;SDS011;5316;49.538;8.352;2022-09-09T03:52:34;2.07;;;0.80;;
10535;SDS011;5316;49.538;8.352;2022-09-09T03:55:02;2.67;;;0.80;;
10535;SDS011;5316;49.538;8.352;2022-09-09T03:57:31;1.23;;;0.83;;
10535;SDS011;5316;49.538;8.352;2022-09-09T03:59:59;3.40;;;0.90;;
10535;SDS011;5316;49.538;8.352;2022-09-09T04:02:27;2.87;;;0.77;;
10535;SDS011;5316;49.538;8.352;2022-09-09T04:04:54;3.17;;;0.80;;
10535;SDS011;5316;49.538;8.352;2022-09-09T04:07:21;3.77;;;0.80;;
10535;SDS011;5316;49.538;8.352;2022-09-09T04:09:47;3.47;;;0.80;;
10535;SDS011;5316;49.538;8.352;2022-09-09T04:12:16;3.27;;;0.70;;
10535;SDS011;5316;49.538;8.352;2022-09-09T04:14:43;3.30;;;0.70;;
10535;SDS011;5316;49.538;8.352;2022-09-09T04:17:09;3.33;;;0.70;;
10535;SDS011;5316;49.538;8.352;2022-09-09T04:19:36;3.03;;;0.80;;
10535;SDS011;5316;49.538;8.352;2022-09-09T04:22:03;3.67;;;1.00;;
10535;SDS011;5316;49.538;8.352;2022-09-09T04:24:30;3.07;;;0.80;;
10535;SDS011;5316;49.538;8.352;2022-09-09T04:26:56;2.67;;;0.80;;
10535;SDS011;5316;49.538;8.352;2022-09-09T04:29:24;4.90;;;3.07;;
10535;SDS011;5316;49.538;8.352;2022-09-09T04:31:51;1.33;;;0.80;;
10535;SDS011;5316;49.538;8.352;2022-09-09T04:34:18;3.37;;;1.20;;
10535;SDS011;5316;49.538;8.352;2022-09-09T04:36:45;2.73;;;1.50;;
10535;SDS011;5316;49.538;8.352;2022-09-09T04:39:11;2.63;;;1.20;;
10535;SDS011;5316;49.538;8.352;2022-09-09T04:41:39;4.50;;;0.90;;
10535;SDS011;5316;49.538;8.352;2022-09-09T04:44:06;3.23;;;1.30;;
10535;SDS011;5316;49.538;8.352;2022-09-09T04:46:34;2.90;;;1.70;;
10535;SDS011;5316;49.538;8.352;2022-09-09T04:49:01;4.00;;;1.23;;
10535;SDS011;5316;49.538;8.352;2022-09-09T04:51:28;3.33;;;0.80;;
10535;SDS011;5316;49.538;8.352;2022-09-09T04:53:56;4.70;;;0.90;;
10535;SDS011;5316;49.538;8.352;2022-09-09T04:56:22;2.17;;;0.70;;
10535;SDS011;5316;49.538;8.352;2022-09-09T04:58:51;1.30;;;0.90;;
10535;SDS011;5316;49.538;8.352;2022-09-09T05:01:19;1.43;;;0.70;;
10535;SDS011;5316;49.538;8.352;2022-09-09T05:03:50;1.60;;;0.77;;
10535;SDS011;5316;49.538;8.352;2022-09-09T05:06:18;2.47;;;1.27;;
10535;SDS011;5316;49.538;8.352;2022-09-09T05:08:46;1.83;;;0.80;;
10535;SDS011;5316;49.538;8.352;2022-09-09T05:11:13;2.27;;;0.77;;
10535;SDS011;5316;49.538;8.352;2022-09-09T05:13:45;2.13;;;0.70;;
10535;SDS011;5316;49.538;8.352;2022-09-09T05:16:12;1.70;;;0.60;;
10535;SDS011;5316;49.538;8.352;2022-09-09T05:18:40;2.60;;;0.70;;
10535;SDS011;5316;49.538;8.352;2022-09-09T05:21:09;4.00;;;0.77;;
10535;SDS011;5316;49.538;8.352;2022-09-09T05:23:37;3.43;;;1.50;;
10535;SDS011;5316;49.538;8.352;2022-09-09T05:26:04;2.23;;;0.70;;
10535;SDS011;5316;49.538;8.352;2022-09-09T05:28:33;1.87;;;0.70;;
10535;SDS011;5316;49.538;8.352;2022-09-09T05:31:01;4.13;;;0.70;;
10535;SDS011;5316;49.538;8.352;2022-09-09T05:33:30;1.90;;;0.60;;
10535;SDS011;5316;49.538;8.352;2022-09-09T05:35:58;4.37;;;0.80;;
10535;SDS011;5316;49.538;8.352;2022-09-09T05:38:26;1.90;;;1.00;;
10535;SDS011;5316;49.538;8.352;2022-09-09T05:40:54;2.33;;;0.60;;
10535;SDS011;5316;49.538;8.352;2022-09-09T05:43:21;4.03;;;0.80;;
10535;SDS011;5316;49.538;8.352;2022-09-09T05:45:58;2.70;;;0.70;;
10535;SDS011;5316;49.538;8.352;2022-09-09T05:48:27;4.43;;;3.20;;
10535;SDS011;5316;49.538;8.352;2022-09-09T05:50:54;2.63;;;1.33;;
10535;SDS011;5316;49.538;8.352;2022-09-09T05:53:21;1.20;;;0.57;;
10535;SDS011;5316;49.538;8.352;2022-09-09T05:55:49;3.33;;;1.00;;
10535;SDS011;5316;49.538;8.352;2022-09-09T05:58:16;3.30;;;1.10;;
10535;SDS011;5316;49.538;8.352;2022-09-09T06:00:43;4.90;;;1.40;;
10535;SDS011;5316;49.538;8.352;2022-09-09T06:03:10;1.37;;;0.80;;
10535;SDS011;5316;49.538;8.352;2022-09-09T06:05:37;3.53;;;0.70;;
10535;SDS011;5316;49.538;8.352;2022-09-09T06:08:04;2.30;;;0.90;;
10535;SDS011;5316;49.538;8.352;2022-09-09T06:10:31;3.13;;;0.80;;
10535;SDS011;5316;49.538;8.352;2022-09-09T06:13:00;4.00;;;1.00;;
10535;SDS011;5316;49.538;8.352;2022-09-09T06:15:27;2.17;;;0.70;;
10535;SDS011;5316;49.538;8.352;2022-09-09T06:17:55;2.80;;;1.10;;
10535;SDS011;5316;49.538;8.352;2022-09-09T06:20:21;3.07;;;2.60;;
10535;SDS011;5316;49.538;8.352;2022-09-09T06:22:49;4.23;;;1.23;;
10535;SDS011;5316;49.538;8.352;2022-09-09T06:25:16;3.10;;;0.90;;
10535;SDS011;5316;49.538;8.352;2022-09-09T06:27:43;1.93;;;0.50;;
10535;SDS011;5316;49.538;8.352;2022-09-09T06:30:16;1.70;;;0.70;;
10535;SDS011;5316;49.538;8.352;2022-09-09T06:32:43;3.70;;;0.80;;
10535;SDS011;5316;49.538;8.352;2022-09-09T06:35:10;3.80;;;0.60;;
10535;SDS011;5316;49.538;8.352;2022-09-09T06:37:36;3.93;;;0.90;;
10535;SDS011;5316;49.538;8.352;2022-09-09T06:40:03;1.80;;;0.50;;
10535;SDS011;5316;49.538;8.352;2022-09-09T06:42:31;1.20;;;0.60;;
10535;SDS011;5316;49.538;8.352;2022-09-09T06:44:57;2.83;;;0.70;;
10535;SDS011;5316;49.538;8.352;2022-09-09T06:47:26;4.73;;;0.60;;
10535;SDS011;5316;49.538;8.352;2022-09-09T06:49:55;2.40;;;0.50;;
10535;SDS011;5316;49.538;8.352;2022-09-09T06:52:21;2.50;;;0.60;;
10535;SDS011;5316;49.538;8.352;2022-09-09T06:54:49;2.27;;;0.60;;
10535;SDS011;5316;49.538;8.352;2022-09-09T06:57:16;3.60;;;1.00;;
10535;SDS011;5316;49.538;8.352;2022-09-09T06:59:43;3.97;;;0.70;;
10535;SDS011;5316;49.538;8.352;2022-09-09T07:02:10;3.07;;;0.70;;
10535;SDS011;5316;49.538;8.352;2022-09-09T07:04:38;5.03;;;0.80;;
10535;SDS011;5316;49.538;8.352;2022-09-09T07:07:04;2.63;;;0.80;;
10535;SDS011;5316;49.538;8.352;2022-09-09T07:09:32;2.97;;;0.60;;
10535;SDS011;5316;49.538;8.352;2022-09-09T07:11:59;3.00;;;0.77;;
10535;SDS011;5316;49.538;8.352;2022-09-09T07:14:26;3.53;;;0.97;;
10535;SDS011;5316;49.538;8.352;2022-09-09T07:16:53;2.17;;;0.73;;
10535;SDS011;5316;49.538;8.352;2022-09-09T07:19:19;1.93;;;0.70;;
10535;SDS011;5316;49.538;8.352;2022-09-09T07:21:47;2.27;;;0.60;;
10535;SDS011;5316;49.538;8.352;2022-09-09T07:24:14;3.63;;;1.00;;
10535;SDS011;5316;49.538;8.352;2022-09-09T07:26:41;2.40;;;0.73;;
10535;SDS011;5316;49.538;8.352;2022-09-09T07:29:09;2.73;;;1.17;;
10535;SDS011;5316;49.538;8.352;2022-09-09T07:31:38;4.80;;;0.60;;
10535;SDS011;5316;49.538;8.352;2022-09-09T07:34:06;3.03;;;0.43;;
10535;SDS011;5316;49.538;8.352;2022-09-09T07:36:33;3.63;;;0.70;;
10535;SDS011;5316;49.538;8.352;2022-09-09T07:39:05;2.57;;;0.60;;
10535;SDS011;5316;49.538;8.352;2022-09-09T07:41:33;3.30;;;0.83;;
10535;SDS011;5316;49.538;8.352;2022-09-09T07:44:05;10.33;;;1.20;;
10535;SDS011;5316;49.538;8.352;2022-09-09T07:46:34;4.37;;;1.10;;
10535;SDS011;5316;49.538;8.352;2022-09-09T07:49:01;3.83;;;0.70;;
10535;SDS011;5316;49.538;8.352;2022-09-09T07:51:29;5.23;;;1.00;;
10535;SDS011;5316;49.538;8.352;2022-09-09T07:53:58;9.53;;;2.60;;
10535;SDS011;5316;49.538;8.352;2022-09-09T07:56:28;12.93;;;2.17;;
10535;SDS011;5316;49.538;8.352;2022-09-09T07:58:56;40.43;;;7.43;;
10535;SDS011;5316;49.538;8.352;2022-09-09T08:01:24;27.90;;;4.33;;
10535;SDS011;5316;49.538;8.352;2022-09-09T08:03:53;12.90;;;2.97;;
10535;SDS011;5316;49.538;8.352;2022-09-09T08:06:24;8.70;;;2.33;;
10535;SDS011;5316;49.538;8.352;2022-09-09T08:08:52;6.13;;;1.17;;
10535;SDS011;5316;49.538;8.352;2022-09-09T08:11:20;2.50;;;0.70;;
10535;SDS011;5316;49.538;8.352;2022-09-09T08:13:49;3.80;;;1.00;;
10535;SDS011;5316;49.538;8.352;2022-09-09T08:16:18;3.20;;;0.80;;
10535;SDS011;5316;49.538;8.352;2022-09-09T08:18:46;4.30;;;0.80;;
10535;SDS011;5316;49.538;8.352;2022-09-09T08:21:14;4.47;;;0.87;;
10535;SDS011;5316;49.538;8.352;2022-09-09T08:23:43;4.17;;;0.80;;
10535;SDS011;5316;49.538;8.352;2022-09-09T08:26:12;5.40;;;1.50;;
10535;SDS011;5316;49.538;8.352;2022-09-09T08:28:41;2.97;;;0.90;;
10535;SDS011;5316;49.538;8.352;2022-09-09T08:31:11;3.60;;;0.90;;
10535;SDS011;5316;49.538;8.352;2022-09-09T08:33:40;4.07;;;1.03;;
10535;SDS011;5316;49.538;8.352;2022-09-09T08:36:08;3.50;;;0.70;;
10535;SDS011;5316;49.538;8.352;2022-09-09T08:38:37;6.07;;;0.73;;
10535;SDS011;5316;49.538;8.352;2022-09-09T08:41:07;3.47;;;0.70;;
10535;SDS011;5316;49.538;8.352;2022-09-09T08:43:46;2.53;;;0.63;;
10535;SDS011;5316;49.538;8.352;2022-09-09T08:46:17;3.77;;;0.77;;
10535;SDS011;5316;49.538;8.352;2022-09-09T08:48:52;5.70;;;0.83;;
10535;SDS011;5316;49.538;8.352;2022-09-09T08:51:23;1.93;;;0.70;;
10535;SDS011;5316;49.538;8.352;2022-09-09T08:53:53;3.80;;;0.80;;
10535;SDS011;5316;49.538;8.352;2022-09-09T08:56:23;3.30;;;0.70;;
10535;SDS011;5316;49.538;8.352;2022-09-09T08:58:52;3.70;;;1.00;;
10535;SDS011;5316;49.538;8.352;2022-09-09T09:04:21;2.87;;;0.63;;
10535;SDS011;5316;49.538;8.352;2022-09-09T09:07:05;1.60;;;0.70;;
10535;SDS011;5316;49.538;8.352;2022-09-09T09:09:40;3.60;;;0.80;;
10535;SDS011;5316;49.538;8.352;2022-09-09T09:12:15;3.13;;;1.00;;
10535;SDS011;5316;49.538;8.352;2022-09-09T09:14:44;3.80;;;1.00;;
10535;SDS011;5316;49.538;8.352;2022-09-09T09:17:16;3.73;;;0.77;;
10535;SDS011;5316;49.538;8.352;2022-09-09T09:19:44;6.33;;;1.07;;
10535;SDS011;5316;49.538;8.352;2022-09-09T09:22:14;2.37;;;0.60;;
10535;SDS011;5316;49.538;8.352;2022-09-09T09:24:45;4.50;;;1.00;;
10535;SDS011;5316;49.538;8.352;2022-09-09T09:27:18;5.50;;;0.93;;
10535;SDS011;5316;49.538;8.352;2022-09-09T09:29:50;3.27;;;1.13;;
10535;SDS011;5316;49.538;8.352;2022-09-09T09:32:24;5.47;;;1.90;;
10535;SDS011;5316;49.538;8.352;2022-09-09T09:34:53;4.37;;;1.47;;
10535;SDS011;5316;49.538;8.352;2022-09-09T09:37:24;2.40;;;0.90;;
10535;SDS011;5316;49.538;8.352;2022-09-09T09:39:54;3.97;;;1.20;;
10535;SDS011;5316;49.538;8.352;2022-09-09T09:42:21;2.67;;;0.77;;
10535;SDS011;5316;49.538;8.352;2022-09-09T09:44:49;4.10;;;0.90;;
10535;SDS011;5316;49.538;8.352;2022-09-09T09:47:17;6.77;;;0.90;;
10535;SDS011;5316;49.538;8.352;2022-09-09T09:49:52;2.90;;;0.73;;
10535;SDS011;5316;49.538;8.352;2022-09-09T09:52:21;5.57;;;1.52;;
10535;SDS011;5316;49.538;8.352;2022-09-09T09:54:49;4.32;;;1.20;;
10535;SDS011;5316;49.538;8.352;2022-09-09T09:57:18;6.97;;;0.90;;
10535;SDS011;5316;49.538;8.352;2022-09-09T10:00:00;2.67;;;0.98;;
10535;SDS011;5316;49.538;8.352;2022-09-09T10:02:37;4.53;;;0.88;;
10535;SDS011;5316;49.538;8.352;2022-09-09T10:05:12;3.90;;;0.88;;
10535;SDS011;5316;49.538;8.352;2022-09-09T10:07:41;2.88;;;0.65;;
10535;SDS011;5316;49.538;8.352;2022-09-09T10:10:11;5.03;;;0.80;;
10535;SDS011;5316;49.538;8.352;2022-09-09T10:12:44;6.03;;;1.00;;
10535;SDS011;5316;49.538;8.352;2022-09-09T10:15:25;3.83;;;0.90;;
10535;SDS011;5316;49.538;8.352;2022-09-09T10:17:59;5.10;;;1.20;;
10535;SDS011;5316;49.538;8.352;2022-09-09T10:20:35;5.30;;;1.53;;
10535;SDS011;5316;49.538;8.352;2022-09-09T10:23:13;5.00;;;0.90;;
10535;SDS011;5316;49.538;8.352;2022-09-09T10:26:06;2.92;;;0.75;;
10535;SDS011;5316;49.538;8.352;2022-09-09T10:29:05;2.53;;;0.73;;
10535;SDS011;5316;49.538;8.352;2022-09-09T10:31:46;4.00;;;0.85;;
10535;SDS011;5316;49.538;8.352;2022-09-09T10:34:24;2.53;;;0.63;;
10535;SDS011;5316;49.538;8.352;2022-09-09T10:37:11;3.17;;;0.67;;
10535;SDS011;5316;49.538;8.352;2022-09-09T10:39:48;2.58;;;0.68;;
10535;SDS011;5316;49.538;8.352;2022-09-09T10:42:23;3.90;;;0.80;;
10535;SDS011;5316;49.538;8.352;2022-09-09T10:45:00;4.53;;;0.90;;
10535;SDS011;5316;49.538;8.352;2022-09-09T10:47:43;3.07;;;0.87;;
10535;SDS011;5316;49.538;8.352;2022-09-09T10:50:27;3.13;;;1.13;;
10535;SDS011;5316;49.538;8.352;2022-09-09T10:53:11;2.85;;;0.77;;
10535;SDS011;5316;49.538;8.352;2022-09-09T10:55:50;2.45;;;1.00;;
10535;SDS011;5316;49.538;8.352;2022-09-09T10:58:20;2.75;;;0.82;;
10535;SDS011;5316;49.538;8.352;2022-09-09T11:00:52;2.35;;;1.08;;
10535;SDS011;5316;49.538;8.352;2022-09-09T11:03:23;2.47;;;0.90;;
10535;SDS011;5316;49.538;8.352;2022-09-09T11:05:55;4.90;;;0.90;;
10535;SDS011;5316;49.538;8.352;2022-09-09T11:08:28;3.92;;;0.90;;
10535;SDS011;5316;49.538;8.352;2022-09-09T11:10:57;4.05;;;0.80;;
10535;SDS011;5316;49.538;8.352;2022-09-09T11:13:30;3.33;;;0.75;;
10535;SDS011;5316;49.538;8.352;2022-09-09T11:16:04;3.87;;;0.97;;
10535;SDS011;5316;49.538;8.352;2022-09-09T11:18:39;3.55;;;0.80;;
10535;SDS011;5316;49.538;8.352;2022-09-09T11:21:11;7.53;;;1.00;;
10535;SDS011;5316;49.538;8.352;2022-09-09T11:23:47;5.45;;;1.00;;
10535;SDS011;5316;49.538;8.352;2022-09-09T11:26:27;3.92;;;0.90;;
10535;SDS011;5316;49.538;8.352;2022-09-09T11:32:06;3.45;;;0.88;;
10535;SDS011;5316;49.538;8.352;2022-09-09T11:34:50;4.07;;;0.52;;
10535;SDS011;5316;49.538;8.352;2022-09-09T11:37:37;3.15;;;0.80;;
10535;SDS011;5316;49.538;8.352;2022-09-09T11:40:20;3.97;;;0.90;;
10535;SDS011;5316;49.538;8.352;2022-09-09T11:43:03;4.43;;;0.90;;
10535;SDS011;5316;49.538;8.352;2022-09-09T11:45:37;3.20;;;0.90;;
10535;SDS011;5316;49.538;8.352;2022-09-09T11:48:22;3.97;;;1.00;;
10535;SDS011;5316;49.538;8.352;2022-09-09T11:50:57;2.37;;;0.50;;
10535;SDS011;5316;49.538;8.352;2022-09-09T11:53:25;2.80;;;0.90;;
10535;SDS011;5316;49.538;8.352;2022-09-09T11:56:03;4.47;;;1.20;;
10535;SDS011;5316;49.538;8.352;2022-09-09T11:58:35;4.87;;;0.80;;
10535;SDS011;5316;49.538;8.352;2022-09-09T12:01:13;3.03;;;0.70;;
10535;SDS011;5316;49.538;8.352;2022-09-09T12:03:55;3.27;;;0.80;;
10535;SDS011;5316;49.538;8.352;2022-09-09T12:06:41;6.47;;;0.83;;
10535;SDS011;5316;49.538;8.352;2022-09-09T12:09:15;4.67;;;0.70;;
10535;SDS011;5316;49.538;8.352;2022-09-09T12:11:48;3.40;;;0.77;;
10535;SDS011;5316;49.538;8.352;2022-09-09T12:14:22;4.10;;;0.70;;
10535;SDS011;5316;49.538;8.352;2022-09-09T12:17:09;1.47;;;0.60;;
10535;SDS011;5316;49.538;8.352;2022-09-09T12:19:43;2.63;;;0.70;;
10535;SDS011;5316;49.538;8.352;2022-09-09T12:22:13;4.83;;;0.80;;
10535;SDS011;5316;49.538;8.352;2022-09-09T12:24:52;1.47;;;0.43;;
10535;SDS011;5316;49.538;8.352;2022-09-09T12:27:26;3.37;;;0.50;;
10535;SDS011;5316;49.538;8.352;2022-09-09T12:29:59;2.43;;;0.60;;
10535;SDS011;5316;49.538;8.352;2022-09-09T12:32:29;1.33;;;0.40;;
10535;SDS011;5316;49.538;8.352;2022-09-09T12:34:59;1.47;;;0.50;;
10535;SDS011;5316;49.538;8.352;2022-09-09T12:37:31;1.57;;;0.50;;
10535;SDS011;5316;49.538;8.352;2022-09-09T12:40:02;1.48;;;0.40;;
10535;SDS011;5316;49.538;8.352;2022-09-09T12:42:32;2.30;;;0.32;;
10535;SDS011;5316;49.538;8.352;2022-09-09T12:44:59;1.63;;;0.43;;
10535;SDS011;5316;49.538;8.352;2022-09-09T12:47:36;2.03;;;0.60;;
10535;SDS011;5316;49.538;8.352;2022-09-09T12:50:14;1.85;;;0.43;;
10535;SDS011;5316;49.538;8.352;2022-09-09T12:52:44;1.65;;;0.50;;
10535;SDS011;5316;49.538;8.352;2022-09-09T12:55:16;0.82;;;0.50;;
10535;SDS011;5316;49.538;8.352;2022-09-09T12:57:46;1.20;;;0.47;;
10535;SDS011;5316;49.538;8.352;2022-09-09T13:00:16;1.92;;;0.50;;
10535;SDS011;5316;49.538;8.352;2022-09-09T13:02:46;2.20;;;0.40;;
10535;SDS011;5316;49.538;8.352;2022-09-09T13:05:16;3.42;;;0.40;;
10535;SDS011;5316;49.538;8.352;2022-09-09T13:07:45;0.85;;;0.50;;
10535;SDS011;5316;49.538;8.352;2022-09-09T13:10:12;1.83;;;0.50;;
10535;SDS011;5316;49.538;8.352;2022-09-09T13:12:40;2.33;;;0.40;;
10535;SDS011;5316;49.538;8.352;2022-09-09T13:15:14;1.55;;;0.45;;
10535;SDS011;5316;49.538;8.352;2022-09-09T13:17:49;0.95;;;0.30;;
10535;SDS011;5316;49.538;8.352;2022-09-09T13:20:18;0.52;;;0.20;;
10535;SDS011;5316;49.538;8.352;2022-09-09T13:25:55;1.92;;;0.30;;
10535;SDS011;5316;49.538;8.352;2022-09-09T13:28:26;0.10;;;0.10;;
10535;SDS011;5316;49.538;8.352;2022-09-09T13:30:59;0.30;;;0.10;;
10535;SDS011;5316;49.538;8.352;2022-09-09T13:33:32;1.55;;;0.20;;
10535;SDS011;5316;49.538;8.352;2022-09-09T13:35:59;1.35;;;0.30;;
10535;SDS011;5316;49.538;8.352;2022-09-09T13:38:31;1.90;;;0.82;;
10535;SDS011;5316;49.538;8.352;2022-09-09T13:41:02;0.73;;;0.38;;
10535;SDS011;5316;49.538;8.352;2022-09-09T13:43:31;0.63;;;0.50;;
10535;SDS011;5316;49.538;8.352;2022-09-09T13:46:04;2.30;;;0.57;;
10535;SDS011;5316;49.538;8.352;2022-09-09T13:48:53;1.40;;;0.40;;
10535;SDS011;5316;49.538;8.352;2022-09-09T13:51:25;1.20;;;0.50;;
10535;SDS011;5316;49.538;8.352;2022-09-09T13:53:56;0.90;;;0.60;;
10535;SDS011;5316;49.538;8.352;2022-09-09T13:56:25;2.75;;;0.60;;
10535;SDS011;5316;49.538;8.352;2022-09-09T13:58:53;1.75;;;0.50;;
10535;SDS011;5316;49.538;8.352;2022-09-09T14:01:25;1.65;;;0.60;;
10535;SDS011;5316;49.538;8.352;2022-09-09T14:03:52;3.17;;;0.60;;
10535;SDS011;5316;49.538;8.352;2022-09-09T14:06:19;2.08;;;0.70;;
10535;SDS011;5316;49.538;8.352;2022-09-09T14:08:47;1.60;;;0.70;;
10535;SDS011;5316;49.538;8.352;2022-09-09T14:11:14;4.90;;;0.82;;
10535;SDS011;5316;49.538;8.352;2022-09-09T14:13:41;1.27;;;0.80;;
10535;SDS011;5316;49.538;8.352;2022-09-09T14:16:07;2.67;;;0.70;;
10535;SDS011;5316;49.538;8.352;2022-09-09T14:18:36;1.55;;;0.50;;
10535;SDS011;5316;49.538;8.352;2022-09-09T14:21:03;5.45;;;0.60;;
10535;SDS011;5316;49.538;8.352;2022-09-09T14:23:30;1.42;;;0.73;;
10535;SDS011;5316;49.538;8.352;2022-09-09T14:25:57;3.92;;;0.80;;
10535;SDS011;5316;49.538;8.352;2022-09-09T14:28:24;0.70;;;0.50;;
10535;SDS011;5316;49.538;8.352;2022-09-09T14:30:51;3.90;;;0.60;;
10535;SDS011;5316;49.538;8.352;2022-09-09T14:33:18;1.45;;;0.50;;
10535;SDS011;5316;49.538;8.352;2022-09-09T14:35:47;2.03;;;0.50;;
10535;SDS011;5316;49.538;8.352;2022-09-09T14:38:14;1.77;;;0.50;;
10535;SDS011;5316;49.538;8.352;2022-09-09T14:40:44;1.15;;;0.60;;
10535;SDS011;5316;49.538;8.352;2022-09-09T14:43:11;2.25;;;0.50;;
10535;SDS011;5316;49.538;8.352;2022-09-09T14:45:39;3.22;;;0.88;;
10535;SDS011;5316;49.538;8.352;2022-09-09T14:48:06;2.03;;;0.82;;
10535;SDS011;5316;49.538;8.352;2022-09-09T14:50:32;2.25;;;0.90;;
10535;SDS011;5316;49.538;8.352;2022-09-09T14:53:01;0.52;;;0.40;;
10535;SDS011;5316;49.538;8.352;2022-09-09T14:55:28;2.72;;;0.60;;
10535;SDS011;5316;49.538;8.352;2022-09-09T14:57:55;1.42;;;0.65;;
10535;SDS011;5316;49.538;8.352;2022-09-09T15:00:22;2.78;;;0.88;;
10535;SDS011;5316;49.538;8.352;2022-09-09T15:02:51;3.20;;;0.80;;
10535;SDS011;5316;49.538;8.352;2022-09-09T15:05:19;2.42;;;0.80;;
10535;SDS011;5316;49.538;8.352;2022-09-09T15:07:46;2.17;;;0.60;;
10535;SDS011;5316;49.538;8.352;2022-09-09T15:10:15;2.67;;;0.80;;
10535;SDS011;5316;49.538;8.352;2022-09-09T15:12:42;4.38;;;1.00;;
10535;SDS011;5316;49.538;8.352;2022-09-09T15:15:10;2.70;;;0.63;;
10535;SDS011;5316;49.538;8.352;2022-09-09T15:17:37;1.58;;;0.50;;
10535;SDS011;5316;49.538;8.352;2022-09-09T15:20:05;3.22;;;0.60;;
10535;SDS011;5316;49.538;8.352;2022-09-09T15:22:33;0.88;;;0.40;;
10535;SDS011;5316;49.538;8.352;2022-09-09T15:25:01;6.47;;;3.87;;
10535;SDS011;5316;49.538;8.352;2022-09-09T15:27:32;1.13;;;0.50;;
10535;SDS011;5316;49.538;8.352;2022-09-09T15:29:59;0.60;;;0.40;;
10535;SDS011;5316;49.538;8.352;2022-09-09T15:32:27;0.60;;;0.40;;
10535;SDS011;5316;49.538;8.352;2022-09-09T15:34:54;1.93;;;0.33;;